sensor_id;sensor_type;location;lat;lon;timestamp;pressure;altitude;pressure_sealevel;temperature;humidity
7888;BME280;3989;48.810;9.208;2023-05-12T00:00:39;98521.31;;;11.08;nan
7888;BME280;3989;48.810;9.208;2023-05-12T00:03:06;98482.31;;;10.93;nan
7888;BME280;3989;48.810;9.208;2023-05-12T00:05:32;98488.03;;;10.90;nan
7888;BME280;3989;48.810;9.208;2023-05-12T00:07:59;98501.06;;;10.99;nan
7888;BME280;3989;48.810;9.208;2023-05-12T00:10:27;98494.72;;;11.00;nan
7888;BME280;3989;48.810;9.208;2023-05-12T00:12:54;98506.25;;;11.01;nan
7888;BME280;3989;48.810;9.208;2023-05-12T00:15:21;98452.53;;;10.75;nan
7888;BME280;3989;48.810;9.208;2023-05-12T00:17:47;98433.72;;;10.62;nan
7888;BME280;3989;48.810;9.208;2023-05-12T00:20:15;98453.84;;;10.64;nan
7888;BME280;3989;48.810;9.208;2023-05-12T00:22:41;98480.16;;;10.82;nan
7888;BME280;3989;48.810;9.208;2023-05-12T00:25:08;98445.69;;;10.51;nan
7888;BME280;3989;48.810;9.208;2023-05-12T00:27:36;98404.06;;;10.21;nan
7888;BME280;3989;48.810;9.208;2023-05-12T00:30:03;98491.13;;;10.72;nan
7888;BME280;3989;48.810;9.208;2023-05-12T00:32:31;98499.94;;;10.73;nan
7888;BME280;3989;48.810;9.208;2023-05-12T00:34:57;98387.28;;;10.12;nan
7888;BME280;3989;48.810;9.208;2023-05-12T00:37:24;98487.91;;;10.62;nan
7888;BME280;3989;48.810;9.208;2023-05-12T00:39:50;98489.06;;;10.74;nan
7888;BME280;3989;48.810;9.208;2023-05-12T00:42:17;98492.38;;;10.76;nan
7888;BME280;3989;48.810;9.208;2023-05-12T00:44:45;98428.97;;;10.42;nan
7888;BME280;3989;48.810;9.208;2023-05-12T00:47:12;98362.84;;;10.09;nan
7888;BME280;3989;48.810;9.208;2023-05-12T00:49:39;98488.06;;;10.75;nan
7888;BME280;3989;48.810;9.208;2023-05-12T00:52:07;98488.59;;;10.85;nan
7888;BME280;3989;48.810;9.208;2023-05-12T00:54:34;98484.44;;;10.83;nan
7888;BME280;3989;48.810;9.208;2023-05-12T00:57:01;98370.56;;;10.18;nan
7888;BME280;3989;48.810;9.208;2023-05-12T00:59:27;98438.84;;;10.63;nan
7888;BME280;3989;48.810;9.208;2023-05-12T01:01:56;98481.59;;;10.84;nan
7888;BME280;3989;48.810;9.208;2023-05-12T01:04:22;98477.28;;;10.83;nan
7888;BME280;3989;48.810;9.208;2023-05-12T01:06:54;98489.88;;;10.89;nan
7888;BME280;3989;48.810;9.208;2023-05-12T01:09:21;98343.63;;;9.98;nan
7888;BME280;3989;48.810;9.208;2023-05-12T01:11:48;98314.16;;;9.85;nan
7888;BME280;3989;48.810;9.208;2023-05-12T01:14:15;98301.47;;;9.73;nan
7888;BME280;3989;48.810;9.208;2023-05-12T01:16:45;98375.00;;;10.11;nan
7888;BME280;3989;48.810;9.208;2023-05-12T01:19:28;98440.16;;;10.52;nan
7888;BME280;3989;48.810;9.208;2023-05-12T01:21:58;98482.34;;;10.78;nan
7888;BME280;3989;48.810;9.208;2023-05-12T01:24:26;98349.53;;;9.94;nan
7888;BME280;3989;48.810;9.208;2023-05-12T01:26:56;98392.75;;;10.19;nan
7888;BME280;3989;48.810;9.208;2023-05-12T01:29:23;98374.53;;;10.08;nan
7888;BME280;3989;48.810;9.208;2023-05-12T01:31:51;98488.81;;;10.69;nan
7888;BME280;3989;48.810;9.208;2023-05-12T01:34:17;98493.50;;;10.67;nan
7888;BME280;3989;48.810;9.208;2023-05-12T01:36:44;98383.06;;;10.03;nan
7888;BME280;3989;48.810;9.208;2023-05-12T01:39:11;98384.06;;;10.02;nan
7888;BME280;3989;48.810;9.208;2023-05-12T01:41:38;98300.31;;;9.46;nan
7888;BME280;3989;48.810;9.208;2023-05-12T01:44:07;98437.13;;;10.41;nan
7888;BME280;3989;48.810;9.208;2023-05-12T01:46:33;98429.25;;;10.33;nan
7888;BME280;3989;48.810;9.208;2023-05-12T01:49:00;98487.53;;;10.65;nan
7888;BME280;3989;48.810;9.208;2023-05-12T01:51:27;98446.34;;;10.38;nan
7888;BME280;3989;48.810;9.208;2023-05-12T01:53:53;98489.75;;;10.62;nan
7888;BME280;3989;48.810;9.208;2023-05-12T01:56:20;98452.88;;;10.36;nan
7888;BME280;3989;48.810;9.208;2023-05-12T01:58:47;98455.06;;;10.47;nan
7888;BME280;3989;48.810;9.208;2023-05-12T02:01:15;98475.31;;;10.56;nan
7888;BME280;3989;48.810;9.208;2023-05-12T02:03:42;98499.78;;;10.60;nan
7888;BME280;3989;48.810;9.208;2023-05-12T02:06:09;98422.78;;;10.13;nan
7888;BME280;3989;48.810;9.208;2023-05-12T02:08:35;98345.22;;;9.64;nan
7888;BME280;3989;48.810;9.208;2023-05-12T02:11:05;98509.06;;;10.49;nan
7888;BME280;3989;48.810;9.208;2023-05-12T02:13:32;98480.09;;;10.46;nan
7888;BME280;3989;48.810;9.208;2023-05-12T02:15:59;98495.28;;;10.45;nan
7888;BME280;3989;48.810;9.208;2023-05-12T02:18:27;98477.88;;;10.35;nan
7888;BME280;3989;48.810;9.208;2023-05-12T02:20:54;98477.34;;;10.39;nan
7888;BME280;3989;48.810;9.208;2023-05-12T02:23:21;98440.47;;;10.14;nan
7888;BME280;3989;48.810;9.208;2023-05-12T02:25:48;98419.41;;;10.04;nan
7888;BME280;3989;48.810;9.208;2023-05-12T02:28:14;98468.25;;;10.34;nan
7888;BME280;3989;48.810;9.208;2023-05-12T02:30:44;98308.38;;;9.38;nan
7888;BME280;3989;48.810;9.208;2023-05-12T02:33:12;98478.97;;;10.40;nan
7888;BME280;3989;48.810;9.208;2023-05-12T02:35:40;98457.84;;;10.24;nan
7888;BME280;3989;48.810;9.208;2023-05-12T02:38:07;98296.97;;;9.29;nan
7888;BME280;3989;48.810;9.208;2023-05-12T02:40:33;98464.28;;;10.30;nan
7888;BME280;3989;48.810;9.208;2023-05-12T02:43:00;98353.56;;;9.61;nan
7888;BME280;3989;48.810;9.208;2023-05-12T02:45:27;98465.00;;;10.38;nan
7888;BME280;3989;48.810;9.208;2023-05-12T02:47:53;98319.84;;;9.38;nan
7888;BME280;3989;48.810;9.208;2023-05-12T02:50:20;98280.69;;;9.10;nan
7888;BME280;3989;48.810;9.208;2023-05-12T02:52:48;98468.69;;;10.37;nan
7888;BME280;3989;48.810;9.208;2023-05-12T02:55:15;98467.22;;;10.35;nan
7888;BME280;3989;48.810;9.208;2023-05-12T02:57:42;98471.09;;;10.32;nan
7888;BME280;3989;48.810;9.208;2023-05-12T03:00:10;98469.34;;;10.25;nan
7888;BME280;3989;48.810;9.208;2023-05-12T03:02:37;98470.47;;;10.30;nan
7888;BME280;3989;48.810;9.208;2023-05-12T03:05:05;98377.47;;;9.69;nan
7888;BME280;3989;48.810;9.208;2023-05-12T03:07:32;98480.91;;;10.32;nan
7888;BME280;3989;48.810;9.208;2023-05-12T03:10:00;98480.00;;;10.25;nan
7888;BME280;3989;48.810;9.208;2023-05-12T03:12:27;98469.25;;;10.18;nan
7888;BME280;3989;48.810;9.208;2023-05-12T03:14:54;98446.69;;;10.06;nan
7888;BME280;3989;48.810;9.208;2023-05-12T03:17:21;98456.63;;;10.12;nan
7888;BME280;3989;48.810;9.208;2023-05-12T03:19:47;98458.66;;;10.10;nan
7888;BME280;3989;48.810;9.208;2023-05-12T03:22:14;98486.38;;;10.24;nan
7888;BME280;3989;48.810;9.208;2023-05-12T03:24:40;98477.59;;;10.15;nan
7888;BME280;3989;48.810;9.208;2023-05-12T03:27:09;98484.06;;;10.21;nan
7888;BME280;3989;48.810;9.208;2023-05-12T03:29:35;98495.78;;;10.12;nan
7888;BME280;3989;48.810;9.208;2023-05-12T03:32:02;98435.25;;;9.83;nan
7888;BME280;3989;48.810;9.208;2023-05-12T03:34:29;98467.13;;;10.14;nan
7888;BME280;3989;48.810;9.208;2023-05-12T03:36:55;98472.94;;;10.17;nan
7888;BME280;3989;48.810;9.208;2023-05-12T03:39:22;98434.00;;;9.93;nan
7888;BME280;3989;48.810;9.208;2023-05-12T03:41:49;98483.25;;;10.20;nan
7888;BME280;3989;48.810;9.208;2023-05-12T03:44:17;98455.88;;;10.03;nan
7888;BME280;3989;48.810;9.208;2023-05-12T03:46:44;98472.16;;;10.09;nan
7888;BME280;3989;48.810;9.208;2023-05-12T03:49:10;98479.28;;;10.16;nan
7888;BME280;3989;48.810;9.208;2023-05-12T03:51:37;98472.75;;;10.19;nan
7888;BME280;3989;48.810;9.208;2023-05-12T03:54:04;98477.91;;;10.20;nan
7888;BME280;3989;48.810;9.208;2023-05-12T03:56:30;98376.25;;;9.57;nan
7888;BME280;3989;48.810;9.208;2023-05-12T03:59:05;98358.78;;;9.54;nan
7888;BME280;3989;48.810;9.208;2023-05-12T04:01:36;98349.50;;;9.50;nan
7888;BME280;3989;48.810;9.208;2023-05-12T04:04:03;98413.03;;;9.90;nan
7888;BME280;3989;48.810;9.208;2023-05-12T04:06:29;98451.97;;;10.14;nan
7888;BME280;3989;48.810;9.208;2023-05-12T04:08:56;98459.22;;;10.20;nan
7888;BME280;3989;48.810;9.208;2023-05-12T04:11:22;98430.97;;;10.11;nan
7888;BME280;3989;48.810;9.208;2023-05-12T04:13:49;98474.50;;;10.26;nan
7888;BME280;3989;48.810;9.208;2023-05-12T04:16:16;98438.97;;;10.11;nan
7888;BME280;3989;48.810;9.208;2023-05-12T04:18:44;98458.44;;;10.12;nan
7888;BME280;3989;48.810;9.208;2023-05-12T04:21:11;98473.03;;;10.24;nan
7888;BME280;3989;48.810;9.208;2023-05-12T04:23:37;98379.03;;;9.78;nan
7888;BME280;3989;48.810;9.208;2023-05-12T04:26:04;98471.19;;;10.39;nan
7888;BME280;3989;48.810;9.208;2023-05-12T04:28:31;98425.44;;;10.13;nan
7888;BME280;3989;48.810;9.208;2023-05-12T04:31:01;98470.44;;;10.45;nan
7888;BME280;3989;48.810;9.208;2023-05-12T04:33:29;98474.19;;;10.50;nan
7888;BME280;3989;48.810;9.208;2023-05-12T04:35:57;98484.13;;;10.57;nan
7888;BME280;3989;48.810;9.208;2023-05-12T04:38:24;98484.56;;;10.60;nan
7888;BME280;3989;48.810;9.208;2023-05-12T04:40:56;98344.41;;;9.78;nan
7888;BME280;3989;48.810;9.208;2023-05-12T04:43:23;98480.91;;;10.61;nan
7888;BME280;3989;48.810;9.208;2023-05-12T04:45:49;98478.53;;;10.66;nan
7888;BME280;3989;48.810;9.208;2023-05-12T04:48:18;98383.78;;;10.12;nan
7888;BME280;3989;48.810;9.208;2023-05-12T04:50:45;98423.63;;;10.28;nan
7888;BME280;3989;48.810;9.208;2023-05-12T04:53:14;98445.41;;;10.46;nan
7888;BME280;3989;48.810;9.208;2023-05-12T04:55:41;98465.53;;;10.63;nan
7888;BME280;3989;48.810;9.208;2023-05-12T04:58:10;98459.38;;;10.63;nan
7888;BME280;3989;48.810;9.208;2023-05-12T05:00:40;98422.53;;;10.22;nan
7888;BME280;3989;48.810;9.208;2023-05-12T05:03:07;98435.75;;;10.60;nan
7888;BME280;3989;48.810;9.208;2023-05-12T05:05:34;98390.25;;;10.32;nan
7888;BME280;3989;48.810;9.208;2023-05-12T05:08:01;98476.44;;;10.83;nan
7888;BME280;3989;48.810;9.208;2023-05-12T05:10:30;98511.44;;;11.09;nan
7888;BME280;3989;48.810;9.208;2023-05-12T05:12:57;98408.91;;;10.46;nan
7888;BME280;3989;48.810;9.208;2023-05-12T05:15:33;98316.97;;;9.98;nan
7888;BME280;3989;48.810;9.208;2023-05-12T05:18:02;98340.97;;;9.98;nan
7888;BME280;3989;48.810;9.208;2023-05-12T05:20:30;98388.38;;;10.47;nan
7888;BME280;3989;48.810;9.208;2023-05-12T05:22:57;98459.38;;;10.98;nan
7888;BME280;3989;48.810;9.208;2023-05-12T05:25:24;98454.47;;;11.02;nan
7888;BME280;3989;48.810;9.208;2023-05-12T05:27:52;98449.41;;;11.07;nan
7888;BME280;3989;48.810;9.208;2023-05-12T05:30:22;98271.66;;;9.98;nan
7888;BME280;3989;48.810;9.208;2023-05-12T05:32:59;98414.94;;;10.91;nan
7888;BME280;3989;48.810;9.208;2023-05-12T05:35:25;98457.19;;;11.23;nan
7888;BME280;3989;48.810;9.208;2023-05-12T05:37:54;98392.00;;;10.96;nan
7888;BME280;3989;48.810;9.208;2023-05-12T05:43:43;98520.34;;;11.73;nan
7888;BME280;3989;48.810;9.208;2023-05-12T05:46:11;98468.16;;;11.56;nan
7888;BME280;3989;48.810;9.208;2023-05-12T05:48:38;98421.22;;;11.26;nan
7888;BME280;3989;48.810;9.208;2023-05-12T05:51:05;98405.19;;;11.26;nan
7888;BME280;3989;48.810;9.208;2023-05-12T05:53:32;98395.13;;;11.28;nan
7888;BME280;3989;48.810;9.208;2023-05-12T05:55:58;98530.81;;;11.96;nan
7888;BME280;3989;48.810;9.208;2023-05-12T05:58:25;98430.38;;;11.59;nan
7888;BME280;3989;48.810;9.208;2023-05-12T06:00:54;98414.72;;;11.56;nan
7888;BME280;3989;48.810;9.208;2023-05-12T06:03:22;98336.91;;;11.17;nan
7888;BME280;3989;48.810;9.208;2023-05-12T06:08:24;98348.50;;;11.24;nan
7888;BME280;3989;48.810;9.208;2023-05-12T06:10:51;98494.13;;;12.11;nan
7888;BME280;3989;48.810;9.208;2023-05-12T06:13:17;98487.56;;;12.14;nan
7888;BME280;3989;48.810;9.208;2023-05-12T06:15:44;98470.50;;;12.15;nan
7888;BME280;3989;48.810;9.208;2023-05-12T06:18:12;98449.16;;;11.93;nan
7888;BME280;3989;48.810;9.208;2023-05-12T06:20:39;98512.66;;;12.40;nan
7888;BME280;3989;48.810;9.208;2023-05-12T06:23:06;98482.09;;;12.28;nan
7888;BME280;3989;48.810;9.208;2023-05-12T06:25:34;98537.69;;;12.67;nan
7888;BME280;3989;48.810;9.208;2023-05-12T06:28:00;98540.41;;;12.74;nan
7888;BME280;3989;48.810;9.208;2023-05-12T06:30:27;98535.91;;;12.81;nan
7888;BME280;3989;48.810;9.208;2023-05-12T06:32:54;98521.09;;;12.85;nan
7888;BME280;3989;48.810;9.208;2023-05-12T06:35:22;98528.16;;;12.92;nan
7888;BME280;3989;48.810;9.208;2023-05-12T06:37:49;98519.06;;;12.93;nan
7888;BME280;3989;48.810;9.208;2023-05-12T06:40:16;98427.22;;;12.45;nan
7888;BME280;3989;48.810;9.208;2023-05-12T06:42:42;98427.31;;;12.65;nan
7888;BME280;3989;48.810;9.208;2023-05-12T06:45:10;98415.84;;;12.84;nan
7888;BME280;3989;48.810;9.208;2023-05-12T06:47:37;98539.50;;;13.61;nan
7888;BME280;3989;48.810;9.208;2023-05-12T06:50:05;98538.69;;;13.81;nan
7888;BME280;3989;48.810;9.208;2023-05-12T06:52:34;98445.22;;;13.32;nan
7888;BME280;3989;48.810;9.208;2023-05-12T06:55:01;98440.69;;;13.39;nan
7888;BME280;3989;48.810;9.208;2023-05-12T06:57:29;98511.69;;;13.82;nan
7888;BME280;3989;48.810;9.208;2023-05-12T06:59:56;98525.50;;;13.79;nan
7888;BME280;3989;48.810;9.208;2023-05-12T07:02:23;98538.72;;;13.94;nan
7888;BME280;3989;48.810;9.208;2023-05-12T07:04:49;98536.03;;;14.00;nan
7888;BME280;3989;48.810;9.208;2023-05-12T07:07:16;98515.41;;;14.01;nan
7888;BME280;3989;48.810;9.208;2023-05-12T07:09:44;98553.16;;;14.32;nan
7888;BME280;3989;48.810;9.208;2023-05-12T07:12:11;98540.38;;;14.41;nan
7888;BME280;3989;48.810;9.208;2023-05-12T07:14:37;98440.91;;;13.70;nan
7888;BME280;3989;48.810;9.208;2023-05-12T07:17:04;98549.47;;;14.40;nan
7888;BME280;3989;48.810;9.208;2023-05-12T07:19:31;98427.50;;;13.63;nan
7888;BME280;3989;48.810;9.208;2023-05-12T07:21:57;98434.94;;;13.68;nan
7888;BME280;3989;48.810;9.208;2023-05-12T07:24:24;98493.50;;;14.17;nan
7888;BME280;3989;48.810;9.208;2023-05-12T07:26:53;98553.16;;;14.58;nan
7888;BME280;3989;48.810;9.208;2023-05-12T07:29:20;98544.47;;;14.69;nan
7888;BME280;3989;48.810;9.208;2023-05-12T07:31:47;98501.69;;;14.68;nan
7888;BME280;3989;48.810;9.208;2023-05-12T07:34:14;98513.84;;;14.77;nan
7888;BME280;3989;48.810;9.208;2023-05-12T07:36:41;98442.69;;;14.42;nan
7888;BME280;3989;48.810;9.208;2023-05-12T07:39:07;98434.84;;;14.47;nan
7888;BME280;3989;48.810;9.208;2023-05-12T07:41:34;98524.84;;;15.13;nan
7888;BME280;3989;48.810;9.208;2023-05-12T07:44:02;98472.03;;;14.94;nan
7888;BME280;3989;48.810;9.208;2023-05-12T07:46:28;98540.25;;;15.38;nan
7888;BME280;3989;48.810;9.208;2023-05-12T07:48:55;98526.19;;;15.36;nan
7888;BME280;3989;48.810;9.208;2023-05-12T07:51:22;98481.81;;;15.20;nan
7888;BME280;3989;48.810;9.208;2023-05-12T07:53:48;98539.44;;;15.75;nan
7888;BME280;3989;48.810;9.208;2023-05-12T07:56:15;98541.88;;;16.08;nan
7888;BME280;3989;48.810;9.208;2023-05-12T07:58:41;98510.16;;;16.10;nan
7888;BME280;3989;48.810;9.208;2023-05-12T08:01:09;98535.59;;;16.39;nan
7888;BME280;3989;48.810;9.208;2023-05-12T08:03:36;98526.09;;;16.36;nan
7888;BME280;3989;48.810;9.208;2023-05-12T08:06:02;98528.28;;;16.46;nan
7888;BME280;3989;48.810;9.208;2023-05-12T08:08:30;98533.41;;;16.72;nan
7888;BME280;3989;48.810;9.208;2023-05-12T08:10:57;98459.91;;;16.65;nan
7888;BME280;3989;48.810;9.208;2023-05-12T08:13:24;98490.69;;;17.23;nan
7888;BME280;3989;48.810;9.208;2023-05-12T08:15:51;98424.50;;;17.09;nan
7888;BME280;3989;48.810;9.208;2023-05-12T08:18:20;98509.75;;;18.11;nan
7888;BME280;3989;48.810;9.208;2023-05-12T08:20:47;98477.78;;;18.20;nan
7888;BME280;3989;48.810;9.208;2023-05-12T08:23:15;98526.78;;;18.58;nan
7888;BME280;3989;48.810;9.208;2023-05-12T08:25:42;98480.59;;;18.02;nan
7888;BME280;3989;48.810;9.208;2023-05-12T08:28:08;98503.16;;;17.96;nan
7888;BME280;3989;48.810;9.208;2023-05-12T08:30:35;98469.56;;;17.50;nan
7888;BME280;3989;48.810;9.208;2023-05-12T08:33:02;98538.44;;;17.82;nan
7888;BME280;3989;48.810;9.208;2023-05-12T08:35:30;98536.22;;;17.91;nan
7888;BME280;3989;48.810;9.208;2023-05-12T08:37:57;98529.16;;;17.78;nan
7888;BME280;3989;48.810;9.208;2023-05-12T08:40:29;98522.19;;;18.12;nan
7888;BME280;3989;48.810;9.208;2023-05-12T08:43:02;98505.50;;;18.27;nan
7888;BME280;3989;48.810;9.208;2023-05-12T08:45:35;98537.13;;;18.61;nan
7888;BME280;3989;48.810;9.208;2023-05-12T08:48:03;98538.78;;;18.62;nan
7888;BME280;3989;48.810;9.208;2023-05-12T08:50:34;98540.56;;;18.57;nan
7888;BME280;3989;48.810;9.208;2023-05-12T08:53:02;98541.47;;;18.62;nan
7888;BME280;3989;48.810;9.208;2023-05-12T08:55:29;98541.03;;;18.54;nan
7888;BME280;3989;48.810;9.208;2023-05-12T08:57:57;98539.69;;;18.21;nan
7888;BME280;3989;48.810;9.208;2023-05-12T09:00:24;98537.53;;;18.00;nan
7888;BME280;3989;48.810;9.208;2023-05-12T09:02:53;98544.78;;;17.88;nan
7888;BME280;3989;48.810;9.208;2023-05-12T09:05:20;98550.81;;;18.02;nan
7888;BME280;3989;48.810;9.208;2023-05-12T09:07:49;98502.44;;;18.00;nan
7888;BME280;3989;48.810;9.208;2023-05-12T09:10:18;98536.75;;;18.46;nan
7888;BME280;3989;48.810;9.208;2023-05-12T09:12:46;98416.38;;;17.69;nan
7888;BME280;3989;48.810;9.208;2023-05-12T09:15:19;98510.47;;;18.42;nan
7888;BME280;3989;48.810;9.208;2023-05-12T09:17:45;98499.53;;;18.25;nan
7888;BME280;3989;48.810;9.208;2023-05-12T09:20:12;98541.38;;;18.57;nan
7888;BME280;3989;48.810;9.208;2023-05-12T09:22:40;98502.09;;;18.20;nan
7888;BME280;3989;48.810;9.208;2023-05-12T09:25:17;98500.69;;;18.06;nan
7888;BME280;3989;48.810;9.208;2023-05-12T09:27:45;98518.53;;;18.07;nan
7888;BME280;3989;48.810;9.208;2023-05-12T09:30:13;98541.53;;;17.56;nan
7888;BME280;3989;48.810;9.208;2023-05-12T09:32:40;98543.56;;;17.72;nan
7888;BME280;3989;48.810;9.208;2023-05-12T09:35:08;98534.81;;;18.00;nan
7888;BME280;3989;48.810;9.208;2023-05-12T09:37:37;98539.81;;;18.15;nan
7888;BME280;3989;48.810;9.208;2023-05-12T09:40:05;98540.88;;;18.25;nan
7888;BME280;3989;48.810;9.208;2023-05-12T09:42:34;98529.00;;;18.26;nan
7888;BME280;3989;48.810;9.208;2023-05-12T09:45:01;98483.06;;;17.92;nan
7888;BME280;3989;48.810;9.208;2023-05-12T09:47:33;98439.25;;;17.78;nan
7888;BME280;3989;48.810;9.208;2023-05-12T09:50:00;98548.72;;;18.38;nan
7888;BME280;3989;48.810;9.208;2023-05-12T09:52:27;98539.00;;;18.49;nan
7888;BME280;3989;48.810;9.208;2023-05-12T09:54:53;98539.72;;;18.56;nan
7888;BME280;3989;48.810;9.208;2023-05-12T09:57:20;98540.50;;;18.45;nan
7888;BME280;3989;48.810;9.208;2023-05-12T09:59:49;98538.84;;;18.32;nan
7888;BME280;3989;48.810;9.208;2023-05-12T10:02:17;98496.41;;;17.75;nan
7888;BME280;3989;48.810;9.208;2023-05-12T10:04:48;98516.94;;;17.76;nan
7888;BME280;3989;48.810;9.208;2023-05-12T10:07:17;98537.78;;;17.57;nan
7888;BME280;3989;48.810;9.208;2023-05-12T10:09:47;98418.28;;;16.43;nan
7888;BME280;3989;48.810;9.208;2023-05-12T10:12:15;98471.13;;;16.44;nan
7888;BME280;3989;48.810;9.208;2023-05-12T10:14:42;98539.56;;;16.54;nan
7888;BME280;3989;48.810;9.208;2023-05-12T10:17:11;98553.41;;;16.40;nan
7888;BME280;3989;48.810;9.208;2023-05-12T10:19:38;98444.81;;;15.78;nan
7888;BME280;3989;48.810;9.208;2023-05-12T10:22:09;98524.28;;;16.30;nan
7888;BME280;3989;48.810;9.208;2023-05-12T10:24:36;98531.94;;;16.51;nan
7888;BME280;3989;48.810;9.208;2023-05-12T10:27:04;98519.59;;;16.44;nan
7888;BME280;3989;48.810;9.208;2023-05-12T10:29:30;98546.16;;;16.83;nan
7888;BME280;3989;48.810;9.208;2023-05-12T10:32:00;98538.31;;;17.29;nan
7888;BME280;3989;48.810;9.208;2023-05-12T10:34:32;98545.94;;;17.51;nan
7888;BME280;3989;48.810;9.208;2023-05-12T10:36:59;98503.13;;;17.24;nan
7888;BME280;3989;48.810;9.208;2023-05-12T10:39:28;98542.00;;;17.65;nan
7888;BME280;3989;48.810;9.208;2023-05-12T10:42:00;98521.03;;;17.67;nan
7888;BME280;3989;48.810;9.208;2023-05-12T10:44:27;98508.31;;;17.56;nan
7888;BME280;3989;48.810;9.208;2023-05-12T10:46:57;98513.41;;;17.46;nan
7888;BME280;3989;48.810;9.208;2023-05-12T10:49:32;98539.50;;;17.81;nan
7888;BME280;3989;48.810;9.208;2023-05-12T10:52:01;98542.56;;;17.85;nan
7888;BME280;3989;48.810;9.208;2023-05-12T10:54:28;98531.94;;;17.60;nan
7888;BME280;3989;48.810;9.208;2023-05-12T10:56:58;98538.88;;;17.50;nan
7888;BME280;3989;48.810;9.208;2023-05-12T10:59:26;98544.59;;;17.60;nan
7888;BME280;3989;48.810;9.208;2023-05-12T11:01:57;98514.69;;;17.43;nan
7888;BME280;3989;48.810;9.208;2023-05-12T11:04:36;98531.44;;;17.33;nan
7888;BME280;3989;48.810;9.208;2023-05-12T11:07:05;98551.97;;;17.35;nan
7888;BME280;3989;48.810;9.208;2023-05-12T11:09:34;98503.91;;;17.13;nan
7888;BME280;3989;48.810;9.208;2023-05-12T11:12:01;98515.66;;;17.01;nan
7888;BME280;3989;48.810;9.208;2023-05-12T11:14:28;98549.59;;;16.90;nan
7888;BME280;3989;48.810;9.208;2023-05-12T11:16:55;98556.31;;;16.63;nan
7888;BME280;3989;48.810;9.208;2023-05-12T11:19:21;98542.13;;;16.49;nan
7888;BME280;3989;48.810;9.208;2023-05-12T11:21:49;98556.16;;;16.58;nan
7888;BME280;3989;48.810;9.208;2023-05-12T11:24:16;98465.97;;;15.99;nan
7888;BME280;3989;48.810;9.208;2023-05-12T11:26:43;98542.91;;;16.56;nan
7888;BME280;3989;48.810;9.208;2023-05-12T11:29:09;98555.94;;;16.77;nan
7888;BME280;3989;48.810;9.208;2023-05-12T11:31:37;98527.72;;;16.62;nan
7888;BME280;3989;48.810;9.208;2023-05-12T11:34:04;98562.84;;;16.92;nan
7888;BME280;3989;48.810;9.208;2023-05-12T11:36:37;98531.78;;;17.07;nan
7888;BME280;3989;48.810;9.208;2023-05-12T11:39:06;98505.69;;;17.19;nan
7888;BME280;3989;48.810;9.208;2023-05-12T11:41:33;98560.06;;;17.94;nan
7888;BME280;3989;48.810;9.208;2023-05-12T11:44:11;98568.44;;;18.16;nan
7888;BME280;3989;48.810;9.208;2023-05-12T11:46:38;98550.25;;;18.23;nan
7888;BME280;3989;48.810;9.208;2023-05-12T11:49:09;98547.56;;;18.46;nan
7888;BME280;3989;48.810;9.208;2023-05-12T11:51:40;98557.44;;;18.87;nan
7888;BME280;3989;48.810;9.208;2023-05-12T11:54:08;98525.28;;;18.62;nan
7888;BME280;3989;48.810;9.208;2023-05-12T11:56:35;98566.16;;;18.89;nan
7888;BME280;3989;48.810;9.208;2023-05-12T11:59:01;98522.56;;;18.62;nan
7888;BME280;3989;48.810;9.208;2023-05-12T12:01:28;98554.59;;;19.05;nan
7888;BME280;3989;48.810;9.208;2023-05-12T12:03:54;98529.00;;;18.96;nan
7888;BME280;3989;48.810;9.208;2023-05-12T12:06:21;98572.94;;;19.15;nan
7888;BME280;3989;48.810;9.208;2023-05-12T12:08:49;98565.06;;;19.02;nan
7888;BME280;3989;48.810;9.208;2023-05-12T12:11:18;98563.31;;;19.35;nan
7888;BME280;3989;48.810;9.208;2023-05-12T12:13:49;98574.66;;;19.44;nan
7888;BME280;3989;48.810;9.208;2023-05-12T12:16:21;98570.44;;;19.65;nan
7888;BME280;3989;48.810;9.208;2023-05-12T12:18:48;98568.59;;;19.82;nan
7888;BME280;3989;48.810;9.208;2023-05-12T12:21:14;98475.91;;;19.47;nan
7888;BME280;3989;48.810;9.208;2023-05-12T12:23:41;98570.28;;;20.00;nan
7888;BME280;3989;48.810;9.208;2023-05-12T12:26:07;98520.56;;;19.61;nan
7888;BME280;3989;48.810;9.208;2023-05-12T12:28:35;98512.09;;;19.57;nan
7888;BME280;3989;48.810;9.208;2023-05-12T12:31:02;98581.91;;;19.83;nan
7888;BME280;3989;48.810;9.208;2023-05-12T12:33:28;98578.38;;;19.83;nan
7888;BME280;3989;48.810;9.208;2023-05-12T12:35:55;98581.84;;;19.67;nan
7888;BME280;3989;48.810;9.208;2023-05-12T12:38:21;98577.06;;;19.57;nan
7888;BME280;3989;48.810;9.208;2023-05-12T12:40:48;98534.63;;;19.06;nan
7888;BME280;3989;48.810;9.208;2023-05-12T12:43:15;98482.22;;;18.84;nan
7888;BME280;3989;48.810;9.208;2023-05-12T12:45:43;98551.94;;;19.73;nan
7888;BME280;3989;48.810;9.208;2023-05-12T12:48:10;98566.91;;;20.26;nan
7888;BME280;3989;48.810;9.208;2023-05-12T12:50:37;98575.50;;;20.34;nan
7888;BME280;3989;48.810;9.208;2023-05-12T12:53:03;98571.53;;;20.25;nan
7888;BME280;3989;48.810;9.208;2023-05-12T12:55:30;98519.59;;;19.67;nan
7888;BME280;3989;48.810;9.208;2023-05-12T12:57:57;98505.22;;;19.38;nan
7888;BME280;3989;48.810;9.208;2023-05-12T13:00:23;98576.75;;;19.30;nan
7888;BME280;3989;48.810;9.208;2023-05-12T13:02:52;98576.25;;;18.59;nan
7888;BME280;3989;48.810;9.208;2023-05-12T13:05:19;98580.50;;;18.02;nan
7888;BME280;3989;48.810;9.208;2023-05-12T13:07:45;98543.13;;;17.27;nan
7888;BME280;3989;48.810;9.208;2023-05-12T13:10:12;98559.31;;;16.91;nan
7888;BME280;3989;48.810;9.208;2023-05-12T13:12:39;98503.19;;;16.27;nan
7888;BME280;3989;48.810;9.208;2023-05-12T13:15:06;98570.22;;;16.35;nan
7888;BME280;3989;48.810;9.208;2023-05-12T13:17:33;98593.47;;;16.29;nan
7888;BME280;3989;48.810;9.208;2023-05-12T13:20:01;98592.53;;;16.17;nan
7888;BME280;3989;48.810;9.208;2023-05-12T13:22:28;98587.53;;;15.90;nan
7888;BME280;3989;48.810;9.208;2023-05-12T13:24:54;98561.88;;;15.62;nan
7888;BME280;3989;48.810;9.208;2023-05-12T13:27:21;98491.75;;;15.19;nan
7888;BME280;3989;48.810;9.208;2023-05-12T13:29:48;98413.44;;;14.71;nan
7888;BME280;3989;48.810;9.208;2023-05-12T13:32:14;98573.50;;;15.88;nan
7888;BME280;3989;48.810;9.208;2023-05-12T13:34:41;98522.41;;;15.81;nan
7888;BME280;3989;48.810;9.208;2023-05-12T13:37:09;98589.06;;;16.35;nan
7888;BME280;3989;48.810;9.208;2023-05-12T13:39:36;98445.66;;;15.47;nan
7888;BME280;3989;48.810;9.208;2023-05-12T13:42:03;98492.38;;;15.84;nan
7888;BME280;3989;48.810;9.208;2023-05-12T13:44:30;98490.50;;;15.85;nan
7888;BME280;3989;48.810;9.208;2023-05-12T13:46:56;98589.13;;;16.53;nan
7888;BME280;3989;48.810;9.208;2023-05-12T13:49:23;98583.66;;;16.66;nan
7888;BME280;3989;48.810;9.208;2023-05-12T13:51:49;98529.31;;;16.45;nan